createdAt,value
2019-05-09T00:06:09.715Z,95843.48
2019-05-09T00:16:09.246Z,95844.77
2019-05-09T00:26:08.457Z,95847.25
2019-05-09T00:36:07.611Z,95843.81
2019-05-09T00:46:27.847Z,95855.33
2019-05-09T00:56:26.920Z,95856.22
2019-05-09T01:06:27.808Z,95870.98
2019-05-09T01:16:26.937Z,95880.84
2019-05-09T01:26:27.473Z,95846.94
2019-05-09T01:36:46.605Z,95858.17
2019-05-09T01:46:46.117Z,95871.21
2019-05-09T01:56:45.434Z,95920.50
2019-05-09T02:06:45.290Z,95924.61
2019-05-09T02:17:04.300Z,95923.82
2019-05-09T02:27:04.014Z,95927.17
2019-05-09T02:37:03.914Z,95928.59
2019-05-09T02:47:09.119Z,95935.07
2019-05-09T02:57:09.250Z,95935.56
2019-05-09T03:07:09.733Z,95949.48
2019-05-09T03:17:08.905Z,95956.60
2019-05-09T03:27:10.541Z,95943.78
2019-05-09T03:37:10.161Z,95947.10
2019-05-09T03:47:23.259Z,95968.03
2019-05-09T03:57:28.417Z,95979.42
2019-05-09T04:07:29.888Z,95989.52
2019-05-09T04:17:44.595Z,96001.19
2019-05-09T04:27:48.005Z,96008.95
2019-05-09T04:37:49.902Z,96034.02
2019-05-09T04:47:54.212Z,96041.06
2019-05-09T04:57:57.194Z,96049.43
2019-05-09T05:07:57.307Z,96077.73
2019-05-09T05:17:54.804Z,96081.27
2019-05-09T05:27:54.796Z,96098.39
2019-05-09T05:37:54.604Z,96100.11
2019-05-09T05:48:02.245Z,96099.09
2019-05-09T05:58:03.182Z,96105.30
2019-05-09T06:08:03.332Z,96118.81
2019-05-09T06:18:04.482Z,96121.85
2019-05-09T06:28:07.639Z,96121.89
2019-05-09T06:38:08.004Z,96123.19
2019-05-09T06:48:07.745Z,96143.81
2019-05-09T06:58:24.948Z,96158.84
2019-05-09T07:08:44.402Z,96156.48
2019-05-09T07:18:44.185Z,96170.34
2019-05-09T07:28:44.116Z,96161.05
2019-05-09T07:38:43.557Z,96150.70
2019-05-09T07:48:43.958Z,96147.44
2019-05-09T07:58:44.680Z,96146.81
2019-05-09T08:08:44.764Z,96124.01
2019-05-09T08:18:44.257Z,96115.92
2019-05-09T08:28:43.879Z,96122.16
2019-05-09T08:38:43.120Z,96138.15
2019-05-09T08:48:43.508Z,96145.87
2019-05-09T08:58:43.711Z,96157.91
2019-05-09T09:08:43.702Z,96164.17
2019-05-09T09:18:44.476Z,96163.55
2019-05-09T09:28:44.555Z,96167.65
2019-05-09T09:38:44.227Z,96151.14
2019-05-09T09:48:45.002Z,96134.64
2019-05-09T09:58:48.259Z,96138.28
2019-05-09T10:08:49.028Z,96131.89
2019-05-09T10:18:57.720Z,96113.20
2019-05-09T10:28:56.559Z,96109.67
2019-05-09T10:38:58.592Z,96114.67
2019-05-09T10:49:00.120Z,96097.17
2019-05-09T10:59:00.665Z,96091.53
2019-05-09T11:09:01.394Z,96083.35
2019-05-09T11:19:02.492Z,96078.94
2019-05-09T11:29:02.272Z,96077.94
2019-05-09T11:39:04.737Z,96075.18
2019-05-09T11:49:05.306Z,96081.32
2019-05-09T11:59:07.841Z,96085.67
2019-05-09T12:09:08.724Z,96075.28
2019-05-09T12:19:08.263Z,96071.82
2019-05-09T12:29:09.723Z,96065.25
2019-05-09T12:39:10.337Z,96059.62
2019-05-09T12:49:12.147Z,96054.16
2019-05-09T12:59:12.721Z,96046.86
2019-05-09T13:09:14.311Z,96033.14
2019-05-09T13:19:18.475Z,96023.69
2019-05-09T13:29:17.026Z,96015.80
2019-05-09T13:39:17.896Z,96001.71
2019-05-09T13:49:19.550Z,95997.97
2019-05-09T13:59:21.071Z,95998.11
2019-05-09T14:09:22.046Z,95995.40
2019-05-09T14:19:31.743Z,95994.47
2019-05-09T14:29:24.787Z,95972.50
2019-05-09T14:39:24.837Z,95979.42
2019-05-09T14:49:39.666Z,95958.73
2019-05-09T14:59:25.456Z,95972.58
2019-05-09T15:09:24.970Z,95976.54
2019-05-09T15:19:24.762Z,95980.45
2019-05-09T15:29:25.074Z,95962.72
2019-05-09T15:39:27.707Z,95967.47
2019-05-09T15:49:28.473Z,95955.05
2019-05-09T15:59:28.187Z,95957.48
2019-05-09T16:09:28.593Z,95950.15
2019-05-09T16:19:27.650Z,95951.45
2019-05-09T16:29:32.321Z,95948.86
2019-05-09T16:39:29.467Z,95950.73
2019-05-09T16:49:29.476Z,95964.76
2019-05-09T16:59:28.251Z,95978.39
2019-05-09T17:09:29.953Z,95983.55
2019-05-09T17:19:32.865Z,95987.32
2019-05-09T17:29:33.041Z,95997.77
2019-05-09T17:39:33.307Z,96006.83
2019-05-09T17:49:33.999Z,96007.14
2019-05-09T17:59:34.481Z,96012.36
2019-05-09T18:09:34.725Z,96016.33
2019-05-09T18:19:38.064Z,96026.09
2019-05-09T18:29:38.060Z,96039.69
2019-05-09T18:39:37.587Z,96068.92
2019-05-09T18:49:37.198Z,96076.11
2019-05-09T18:59:37.958Z,96102.66
2019-05-09T19:09:37.352Z,96121.25
2019-05-09T19:19:51.735Z,96133.78
2019-05-09T19:29:52.354Z,96140.77
2019-05-09T19:39:53.329Z,96161.70
2019-05-09T19:49:53.984Z,96197.36
2019-05-09T19:59:53.673Z,96235.02
2019-05-09T20:09:58.278Z,96240.50
2019-05-09T20:20:01.398Z,96241.20
2019-05-09T20:30:01.523Z,96239.68
2019-05-09T20:40:01.570Z,96242.44
2019-05-09T20:50:02.021Z,96236.14
2019-05-09T21:00:03.193Z,96250.50
2019-05-09T21:10:04.255Z,96261.15
2019-05-09T21:20:06.547Z,96275.11
2019-05-09T21:30:06.642Z,96290.14
2019-05-09T21:40:06.875Z,96294.67
2019-05-09T21:50:08.239Z,96308.83
2019-05-09T22:00:09.207Z,96322.91
2019-05-09T22:10:08.605Z,96317.00
2019-05-09T22:20:08.317Z,96335.31
2019-05-09T22:30:08.363Z,96334.00
2019-05-09T22:40:08.548Z,96338.33
2019-05-09T22:50:08.638Z,96346.77
2019-05-09T23:00:08.951Z,96345.37
2019-05-09T23:10:09.155Z,96341.98
2019-05-09T23:20:12.772Z,96336.55
2019-05-09T23:30:12.906Z,96337.89
2019-05-09T23:40:12.899Z,96342.75
2019-05-09T23:50:12.397Z,96328.80
